Time;durP1;ratioP1;P1;durP2;ratioP2;P2;SDS_P1;SDS_P2;PMS_P1;PMS_P2;Temp;Humidity;BMP_temperature;BMP_pressure;BME280_temperature;BME280_humidity;BME280_pressure;Samples;Min_cycle;Max_cycle;Signal;HPM_P1;HPM_P2
2024/01/23 00:00:31;;;;;;;12.40;7.80;;;;;;;3.00;80.15;99538.93;217246;1260;139786;-74
2024/01/23 00:05:54;;;;;;;12.60;8.30;;;;;;;2.99;80.39;99540.59;217533;1257;139291;-71
2024/01/23 00:10:59;;;;;;;14.10;9.40;;;;;;;2.99;80.36;99538.52;217189;1256;138959;-75
2024/01/23 00:16:03;;;;;;;10.30;8.40;;;;;;;2.99;80.47;99542.17;217064;1256;140484;-77
2024/01/23 00:21:08;;;;;;;10.20;8.40;;;;;;;2.97;80.32;99539.67;217145;1260;139950;-77
2024/01/23 00:26:12;;;;;;;12.60;8.30;;;;;;;2.95;80.44;99547.93;217402;1258;139158;-75
2024/01/23 00:31:17;;;;;;;12.60;9.30;;;;;;;2.94;80.71;99548.57;216902;1257;140401;-73
2024/01/23 00:36:23;;;;;;;9.30;6.60;;;;;;;2.94;80.81;99545.96;217372;1260;139779;-75
2024/01/23 00:41:28;;;;;;;9.40;7.30;;;;;;;2.95;80.76;99549.66;217207;1257;140785;-74
2024/01/23 00:46:32;;;;;;;13.40;9.10;;;;;;;2.98;80.90;99566.70;217235;1257;139102;-75
2024/01/23 00:51:36;;;;;;;13.30;8.50;;;;;;;3.01;80.92;99572.81;217345;1256;140051;-73
2024/01/23 00:56:43;;;;;;;16.30;8.30;;;;;;;3.02;80.95;99574.65;217113;1260;139829;-75
2024/01/23 01:01:47;;;;;;;12.50;8.10;;;;;;;3.03;80.94;99580.85;216855;1260;140019;-78
2024/01/23 01:06:51;;;;;;;14.20;9.80;;;;;;;3.04;80.99;99583.93;217130;1256;139121;-75
2024/01/23 01:11:55;;;;;;;15.60;8.50;;;;;;;3.05;81.01;99589.02;216771;1256;139433;-75
2024/01/23 01:17:01;;;;;;;11.60;8.20;;;;;;;3.07;80.96;99587.79;217434;1260;140739;-79
2024/01/23 01:22:06;;;;;;;10.50;8.20;;;;;;;3.04;81.02;99592.82;217069;1256;139777;-74
2024/01/23 01:27:11;;;;;;;14.70;8.10;;;;;;;3.05;81.29;99597.59;217962;1256;139994;-72
2024/01/23 01:32:16;;;;;;;12.70;7.90;;;;;;;3.06;81.04;99594.41;216697;1256;139434;-75
2024/01/23 01:37:21;;;;;;;13.10;8.70;;;;;;;3.04;81.08;99593.90;216869;1256;140390;-73
2024/01/23 01:42:26;;;;;;;14.40;7.00;;;;;;;3.01;81.12;99605.46;216792;1256;139490;-73
2024/01/23 01:47:30;;;;;;;11.40;8.00;;;;;;;2.99;81.18;99613.83;217121;1256;139642;-73
2024/01/23 01:52:37;;;;;;;9.90;6.10;;;;;;;2.96;81.22;99617.36;216805;1256;139758;-74
2024/01/23 01:57:42;;;;;;;12.60;7.90;;;;;;;2.94;81.33;99612.03;218984;1255;140368;-74
2024/01/23 02:02:50;;;;;;;13.30;7.30;;;;;;;2.92;81.30;99619.02;216835;1258;141049;-74
2024/01/23 02:07:55;;;;;;;14.00;8.10;;;;;;;2.92;81.48;99619.75;217645;1256;139739;-75
2024/01/23 02:13:00;;;;;;;14.00;6.90;;;;;;;2.88;81.41;99610.79;216674;1258;140788;-73
2024/01/23 02:18:05;;;;;;;12.20;8.30;;;;;;;2.87;81.81;99615.48;216739;1256;140947;-73
2024/01/23 02:23:16;;;;;;;13.40;7.20;;;;;;;2.86;81.75;99622.40;216685;1256;141764;-73
2024/01/23 02:28:21;;;;;;;10.50;6.30;;;;;;;2.85;81.86;99621.34;216923;1257;140224;-74
2024/01/23 02:33:25;;;;;;;11.30;6.50;;;;;;;2.83;81.98;99625.24;216776;1256;139746;-74
2024/01/23 02:38:32;;;;;;;6.80;6.10;;;;;;;2.81;81.94;99632.14;216932;1256;140631;-72
2024/01/23 02:43:37;;;;;;;13.30;8.10;;;;;;;2.81;82.18;99640.52;217051;1258;139729;-72
2024/01/23 02:48:42;;;;;;;12.30;8.10;;;;;;;2.79;82.14;99634.06;217259;1256;139983;-71
2024/01/23 02:53:46;;;;;;;15.80;8.80;;;;;;;2.76;82.32;99634.61;216824;1262;139616;-74
2024/01/23 02:58:51;;;;;;;13.90;9.20;;;;;;;2.74;82.57;99645.77;217819;1259;141166;-76
2024/01/23 03:03:55;;;;;;;13.30;7.50;;;;;;;2.74;82.54;99645.02;216662;1257;139979;-74
2024/01/23 03:09:00;;;;;;;13.00;8.20;;;;;;;2.73;82.53;99641.64;216712;1260;140284;-73
2024/01/23 03:14:05;;;;;;;13.70;9.20;;;;;;;2.71;82.65;99641.14;216787;1260;139571;-75
2024/01/23 03:19:10;;;;;;;10.40;7.80;;;;;;;2.68;82.70;99650.33;217052;1260;140306;-77
2024/01/23 03:24:15;;;;;;;15.70;8.50;;;;;;;2.65;82.90;99659.80;216819;1259;139346;-78
2024/01/23 03:29:20;;;;;;;14.60;8.50;;;;;;;2.64;83.12;99663.36;216869;1256;139543;-76
2024/01/23 03:34:25;;;;;;;20.60;9.40;;;;;;;2.61;82.82;99653.17;216815;1256;141223;-79
2024/01/23 03:39:30;;;;;;;18.00;9.90;;;;;;;2.59;83.02;99654.19;218362;1260;140757;-74
2024/01/23 03:44:35;;;;;;;11.10;9.60;;;;;;;2.56;83.12;99665.20;216703;1260;140719;-74
2024/01/23 03:49:40;;;;;;;19.30;11.10;;;;;;;2.54;83.35;99673.06;216964;1257;139257;-72
2024/01/23 03:54:45;;;;;;;16.70;9.50;;;;;;;2.51;83.27;99676.52;218055;1256;140513;-78
2024/01/23 03:59:50;;;;;;;11.20;8.80;;;;;;;2.48;83.29;99678.98;216942;1257;140237;-70
2024/01/23 04:04:54;;;;;;;14.70;9.40;;;;;;;2.44;83.38;99673.71;217630;1259;140433;-71
2024/01/23 04:10:00;;;;;;;15.50;10.70;;;;;;;2.42;83.76;99673.34;216852;1257;139847;-71
2024/01/23 04:15:05;;;;;;;15.10;9.30;;;;;;;2.42;83.74;99674.76;216934;1256;140585;-70
2024/01/23 04:20:10;;;;;;;16.20;9.90;;;;;;;2.41;83.96;99670.98;216731;1261;139613;-70
2024/01/23 04:25:16;;;;;;;15.40;8.90;;;;;;;2.38;83.95;99673.53;216738;1261;139566;-70
2024/01/23 04:30:21;;;;;;;12.70;8.70;;;;;;;2.37;84.04;99670.04;217211;1256;139838;-70
2024/01/23 04:35:27;;;;;;;14.60;9.40;;;;;;;2.34;84.45;99675.55;217409;1261;139417;-70
2024/01/23 04:40:32;;;;;;;12.10;9.10;;;;;;;2.33;84.37;99678.52;216532;1257;139918;-71
2024/01/23 04:45:36;;;;;;;12.70;7.90;;;;;;;2.30;84.45;99681.03;216672;1261;140542;-71
2024/01/23 04:50:41;;;;;;;15.10;9.10;;;;;;;2.27;84.76;99679.61;216686;1260;140282;-70
2024/01/23 04:55:46;;;;;;;14.10;8.70;;;;;;;2.23;84.77;99683.60;216540;1257;269251;-71
2024/01/23 05:00:51;;;;;;;13.90;8.50;;;;;;;2.18;84.77;99682.96;216843;1261;141420;-73
2024/01/23 05:05:55;;;;;;;13.60;8.50;;;;;;;2.15;84.94;99686.48;217221;1259;141355;-72
2024/01/23 05:10:59;;;;;;;13.00;8.10;;;;;;;2.15;85.30;99687.20;216826;1262;140158;-72
2024/01/23 05:16:04;;;;;;;12.30;7.50;;;;;;;2.17;85.41;99690.31;216892;1256;140555;-74
2024/01/23 05:21:08;;;;;;;10.90;7.40;;;;;;;2.20;85.64;99689.88;217088;1257;139418;-74
2024/01/23 05:26:13;;;;;;;14.00;8.00;;;;;;;2.25;85.74;99699.16;217164;1260;139645;-75
2024/01/23 05:31:17;;;;;;;11.40;6.60;;;;;;;2.30;85.78;99701.67;217046;1261;140006;-74
2024/01/23 05:36:21;;;;;;;14.70;8.60;;;;;;;2.32;85.70;99707.05;218343;1256;153128;-78
2024/01/23 05:41:26;;;;;;;15.00;8.20;;;;;;;2.34;85.89;99712.29;216998;1257;139674;-78
2024/01/23 05:46:35;;;;;;;10.10;7.90;;;;;;;2.35;85.78;99710.92;219944;1256;139691;-73
2024/01/23 05:51:39;;;;;;;9.50;7.90;;;;;;;2.39;86.08;99717.86;217641;1259;150833;-73
2024/01/23 05:56:48;;;;;;;11.90;6.90;;;;;;;2.45;86.01;99726.55;216974;1259;139959;-71
2024/01/23 06:01:54;;;;;;;8.80;5.40;;;;;;;2.47;85.85;99727.02;216930;1260;139921;-69
2024/01/23 06:06:59;;;;;;;15.30;7.80;;;;;;;2.44;85.68;99734.20;217324;1256;139446;-75
2024/01/23 06:12:04;;;;;;;9.10;6.50;;;;;;;2.41;85.89;99741.45;217362;1261;139945;-73
2024/01/23 06:17:07;;;;;;;14.00;7.30;;;;;;;2.40;86.05;99749.19;217183;1256;139826;-73
2024/01/23 06:22:13;;;;;;;13.90;7.10;;;;;;;2.38;86.13;99756.70;217054;1259;139909;-75
2024/01/23 06:27:19;;;;;;;8.40;5.50;;;;;;;2.40;86.13;99754.42;217099;1258;142119;-73
2024/01/23 06:32:25;;;;;;;17.10;9.40;;;;;;;2.38;86.16;99756.58;216807;1257;140977;-71
2024/01/23 06:37:30;;;;;;;11.50;6.70;;;;;;;2.34;86.11;99757.83;216819;1260;139295;-75
2024/01/23 06:42:36;;;;;;;9.50;5.00;;;;;;;2.33;86.14;99772.54;216678;1261;140016;-78
2024/01/23 06:47:41;;;;;;;9.60;6.50;;;;;;;2.35;86.30;99783.04;217147;1260;139824;-73
2024/01/23 06:52:47;;;;;;;8.30;6.50;;;;;;;2.35;86.40;99790.13;217050;1257;140198;-77
2024/01/23 06:57:51;;;;;;;13.30;6.20;;;;;;;2.38;86.44;99790.98;217347;1262;139158;-76
2024/01/23 07:02:56;;;;;;;13.60;6.70;;;;;;;2.40;86.31;99798.02;217115;1256;139526;-75
2024/01/23 07:08:02;;;;;;;16.00;5.30;;;;;;;2.45;86.31;99807.25;217461;1261;139729;-77
2024/01/23 07:13:07;;;;;;;12.40;5.20;;;;;;;2.49;86.48;99820.34;217155;1261;140751;-77
2024/01/23 07:18:13;;;;;;;10.20;6.30;;;;;;;2.52;86.55;99834.45;217437;1260;139341;-76
2024/01/23 07:23:17;;;;;;;10.50;6.70;;;;;;;2.64;86.78;99837.79;217268;1259;141151;-75
2024/01/23 07:28:21;;;;;;;14.70;6.00;;;;;;;2.79;86.83;99848.64;218125;1257;139492;-72
2024/01/23 07:33:46;;;;;;;11.70;5.70;;;;;;;2.91;86.58;99853.70;218003;1257;139280;-71
2024/01/23 07:38:51;;;;;;;13.70;7.70;;;;;;;3.01;86.58;99863.86;217787;1257;139248;-73
2024/01/23 07:43:56;;;;;;;12.80;5.80;;;;;;;3.06;86.33;99862.48;217719;1257;140767;-77
2024/01/23 07:49:00;;;;;;;10.70;6.00;;;;;;;3.10;86.16;99869.34;217802;1256;140600;-75
2024/01/23 07:54:05;;;;;;;12.60;6.90;;;;;;;3.13;85.88;99873.22;217438;1259;140704;-77
2024/01/23 07:59:09;;;;;;;9.70;8.10;;;;;;;3.16;85.75;99875.45;218088;1257;140999;-75
2024/01/23 08:04:14;;;;;;;12.90;8.20;;;;;;;3.15;85.56;99877.70;217469;1258;140547;-72
2024/01/23 08:09:19;;;;;;;15.80;9.30;;;;;;;3.17;85.54;99885.52;217625;1255;140311;-69
2024/01/23 08:14:23;;;;;;;8.80;7.10;;;;;;;3.20;85.68;99886.70;217459;1257;149265;-68
2024/01/23 08:19:28;;;;;;;10.30;6.50;;;;;;;3.21;85.45;99895.38;218113;1257;139013;-68
2024/01/23 08:24:32;;;;;;;12.90;8.50;;;;;;;3.22;85.43;99900.38;217669;1257;139304;-71
2024/01/23 08:29:37;;;;;;;14.60;8.80;;;;;;;3.25;85.36;99910.59;217646;1259;139317;-70
2024/01/23 08:34:43;;;;;;;19.70;10.90;;;;;;;3.28;85.28;99917.05;217331;1257;140499;-70
2024/01/23 08:39:50;;;;;;;18.20;7.70;;;;;;;3.32;85.18;99919.44;217333;1259;140067;-74
2024/01/23 08:44:55;;;;;;;16.30;8.50;;;;;;;3.40;85.22;99919.49;217465;1259;140184;-74
2024/01/23 08:50:00;;;;;;;12.90;8.10;;;;;;;3.48;85.26;99922.95;217350;1260;139579;-73
2024/01/23 08:55:05;;;;;;;13.10;7.30;;;;;;;3.55;85.02;99936.67;218603;1258;140605;-77
2024/01/23 09:00:12;;;;;;;9.50;7.90;;;;;;;3.61;84.95;99939.46;217608;1258;139142;-74
2024/01/23 09:05:19;;;;;;;12.40;7.20;;;;;;;3.75;85.01;99938.27;218312;1259;139781;-77
2024/01/23 09:10:24;;;;;;;9.30;6.30;;;;;;;3.86;84.92;99947.86;217412;1259;140597;-73
2024/01/23 09:15:29;;;;;;;11.10;8.00;;;;;;;3.96;84.73;99963.44;217604;1259;139293;-75
2024/01/23 09:20:35;;;;;;;15.00;8.10;;;;;;;4.07;84.82;99963.90;218413;1256;139990;-75
2024/01/23 09:25:40;;;;;;;13.30;7.80;;;;;;;4.14;84.41;99968.85;217603;1259;139444;-74
2024/01/23 09:30:45;;;;;;;15.90;8.20;;;;;;;4.18;84.38;99982.17;217521;1259;140406;-74
2024/01/23 09:35:50;;;;;;;10.40;7.70;;;;;;;4.18;84.13;99990.90;217682;1259;142393;-76
2024/01/23 09:40:54;;;;;;;10.10;6.30;;;;;;;4.17;83.96;99997.63;217496;1257;139674;-77
2024/01/23 09:45:59;;;;;;;14.10;6.80;;;;;;;4.15;84.09;99999.52;217345;1256;140240;-78
2024/01/23 09:51:05;;;;;;;9.90;5.20;;;;;;;4.11;84.05;100000.98;219052;1259;140290;-77
2024/01/23 09:56:11;;;;;;;11.90;6.50;;;;;;;4.09;83.87;100003.38;217490;1259;141222;-76
2024/01/23 10:01:18;;;;;;;12.80;7.20;;;;;;;4.11;83.95;100008.02;217420;1259;139588;-75
2024/01/23 10:06:22;;;;;;;;;;;;;;;4.14;83.74;100015.05;217677;1257;139872;-72
2024/01/23 10:11:28;;;;;;;18.20;6.70;;;;;;;4.12;83.91;100020.30;217871;1257;127060;-70
2024/01/23 10:16:33;;;;;;;12.50;6.10;;;;;;;4.11;83.86;100034.98;217413;1257;140360;-69
2024/01/23 10:21:38;;;;;;;9.10;7.20;;;;;;;4.13;83.98;100031.71;217573;1259;140513;-70
2024/01/23 10:26:45;;;;;;;6.40;5.20;;;;;;;4.24;83.85;100035.83;217475;1257;139727;-69
2024/01/23 10:31:49;;;;;;;12.50;5.00;;;;;;;4.39;83.88;100029.43;217585;1260;139991;-70
2024/01/23 10:36:57;;;;;;;9.90;4.20;;;;;;;4.56;83.64;100034.44;217530;1259;140060;-72
2024/01/23 10:42:04;;;;;;;9.10;3.80;;;;;;;4.82;83.66;100049.47;217596;1257;139889;-71
2024/01/23 10:47:08;;;;;;;5.20;3.30;;;;;;;5.04;83.65;100052.83;217745;1260;141127;-72
2024/01/23 10:52:17;;;;;;;7.20;3.20;;;;;;;5.20;83.11;100048.03;216866;1260;139736;-75
2024/01/23 10:57:24;;;;;;;4.70;3.40;;;;;;;5.28;82.71;100048.38;217223;1260;140120;-74
2024/01/23 11:02:52;;;;;;;9.70;4.70;;;;;;;5.37;82.75;100049.41;216939;1260;139552;-73
2024/01/23 11:08:09;;;;;;;7.90;4.70;;;;;;;5.53;82.35;100042.80;217107;1260;140209;-75
2024/01/23 11:13:41;;;;;;;5.80;4.50;;;;;;;5.58;81.95;100051.16;219036;1260;139412;-75
2024/01/23 11:18:47;;;;;;;7.00;4.80;;;;;;;5.58;81.48;100047.91;217201;1260;140186;-75
2024/01/23 11:24:00;;;;;;;7.60;3.50;;;;;;;5.56;81.15;100055.66;217457;1260;139314;-75
2024/01/23 11:29:05;;;;;;;5.30;4.30;;;;;;;5.46;81.02;100052.98;217497;1260;140195;-76
2024/01/23 11:34:26;;;;;;;6.60;3.60;;;;;;;5.36;81.12;100047.91;216945;1260;140004;-75
2024/01/23 11:39:34;;;;;;;10.70;4.20;;;;;;;5.30;80.91;100052.41;218390;1257;139757;-75
2024/01/23 11:44:39;;;;;;;;;;;;;;;5.26;80.84;100053.64;217301;1257;141165;-75
2024/01/23 11:49:44;;;;;;;9.00;4.20;;;;;;;5.18;80.91;100061.77;217479;1260;126388;-73
2024/01/23 11:54:49;;;;;;;8.40;5.20;;;;;;;5.16;80.90;100072.38;217350;1257;141916;-74
2024/01/23 11:59:54;;;;;;;7.80;4.00;;;;;;;5.20;81.26;100067.27;217035;1257;139750;-73
2024/01/23 12:04:59;;;;;;;6.20;3.30;;;;;;;5.19;80.87;100063.69;217543;1258;140124;-73
2024/01/23 12:10:08;;;;;;;13.00;4.40;;;;;;;5.15;81.08;100059.80;217599;1258;139768;-73
2024/01/23 12:15:14;;;;;;;10.70;4.00;;;;;;;5.17;81.30;100051.84;217747;1257;139938;-73
2024/01/23 12:20:20;;;;;;;5.20;3.60;;;;;;;5.18;80.87;100063.23;216956;1260;139348;-72
2024/01/23 12:25:25;;;;;;;8.90;3.80;;;;;;;5.16;80.97;100063.48;217261;1258;140208;-73
2024/01/23 12:30:30;;;;;;;7.30;3.10;;;;;;;5.10;80.48;100067.96;217231;1256;141324;-73
2024/01/23 12:35:38;;;;;;;7.80;5.00;;;;;;;5.12;80.87;100071.11;217129;1260;141492;-72
2024/01/23 12:40:43;;;;;;;;;;;;;;;5.14;80.89;100065.13;217194;1257;139336;-73
2024/01/23 12:45:52;;;;;;;5.10;2.90;;;;;;;5.20;81.11;100063.48;217468;1257;126764;-72
2024/01/23 12:51:01;;;;;;;6.50;3.90;;;;;;;5.25;80.85;100083.71;217102;1256;139779;-73
2024/01/23 12:56:06;;;;;;;6.00;2.50;;;;;;;5.26;80.80;100087.27;217226;1260;139867;-72
2024/01/23 13:01:10;;;;;;;5.00;3.40;;;;;;;5.23;80.65;100089.77;217436;1256;139531;-73
2024/01/23 13:06:18;;;;;;;8.30;3.80;;;;;;;5.21;80.93;100095.27;217071;1260;140496;-73
2024/01/23 13:11:24;;;;;;;8.30;3.60;;;;;;;5.19;80.28;100104.79;216910;1258;139321;-74
2024/01/23 13:16:29;;;;;;;6.00;3.40;;;;;;;5.13;80.69;100104.30;217122;1260;140185;-73
2024/01/23 13:21:34;;;;;;;6.60;3.40;;;;;;;5.07;80.53;100113.10;217011;1260;140950;-73
2024/01/23 13:26:39;;;;;;;8.90;3.00;;;;;;;5.06;80.66;100111.63;217011;1260;139513;-73
2024/01/23 13:31:45;;;;;;;7.00;2.90;;;;;;;5.00;80.50;100113.85;217296;1257;140162;-73
2024/01/23 13:36:49;;;;;;;10.30;3.90;;;;;;;4.97;80.59;100120.68;217175;1260;139608;-74
2024/01/23 13:41:54;;;;;;;3.50;3.20;;;;;;;4.93;80.96;100117.30;216985;1260;139876;-73
2024/01/23 13:47:00;;;;;;;6.30;3.80;;;;;;;4.86;80.31;100122.54;217222;1260;140328;-74
2024/01/23 13:52:07;;;;;;;8.30;3.30;;;;;;;4.82;80.64;100117.98;217051;1258;140362;-73
2024/01/23 13:57:12;;;;;;;12.80;5.20;;;;;;;4.75;80.48;100126.04;217184;1260;139613;-72
2024/01/23 14:02:17;;;;;;;5.70;2.90;;;;;;;4.68;80.60;100123.56;217057;1260;140215;-73
2024/01/23 14:07:21;;;;;;;4.70;3.80;;;;;;;4.65;80.84;100133.23;217086;1258;139576;-73
2024/01/23 14:12:26;;;;;;;7.60;3.80;;;;;;;4.59;80.64;100142.60;217183;1260;140490;-73
2024/01/23 14:17:31;;;;;;;8.30;3.20;;;;;;;4.54;81.02;100144.63;217224;1256;140699;-74
2024/01/23 14:22:35;;;;;;;19.30;4.70;;;;;;;4.51;80.72;100140.77;217782;1259;139845;-73
2024/01/23 14:27:40;;;;;;;12.30;3.80;;;;;;;4.47;81.10;100141.65;217012;1256;139577;-73
2024/01/23 14:32:45;;;;;;;9.60;2.40;;;;;;;4.44;80.84;100140.63;217030;1257;140611;-73
2024/01/23 14:37:52;;;;;;;6.80;2.40;;;;;;;4.38;80.82;100148.85;217123;1258;139259;-74
2024/01/23 14:42:57;;;;;;;8.30;4.20;;;;;;;4.31;81.37;100157.77;217278;1257;140526;-73
2024/01/23 14:48:01;;;;;;;9.80;3.40;;;;;;;4.24;81.46;100175.06;216966;1257;140264;-71
2024/01/23 14:53:07;;;;;;;4.70;2.60;;;;;;;4.18;81.75;100180.31;217060;1257;139225;-73
2024/01/23 14:58:12;;;;;;;12.30;4.00;;;;;;;4.12;81.98;100190.48;217559;1256;139721;-73
2024/01/23 15:03:16;;;;;;;5.20;3.50;;;;;;;4.05;82.13;100193.27;217193;1258;140286;-73
2024/01/23 15:08:22;;;;;;;10.20;4.00;;;;;;;4.01;82.33;100209.67;217457;1256;139813;-73
2024/01/23 15:13:28;;;;;;;8.00;5.20;;;;;;;3.99;82.32;100212.53;217177;1258;140344;-73
2024/01/23 15:18:33;;;;;;;11.90;3.80;;;;;;;3.99;82.50;100226.45;217179;1260;140086;-72
2024/01/23 15:23:38;;;;;;;7.70;3.50;;;;;;;3.99;82.36;100249.41;217298;1257;139484;-77
2024/01/23 15:28:43;;;;;;;8.50;4.10;;;;;;;3.96;82.62;100268.42;217197;1260;139326;-72
2024/01/23 15:33:47;;;;;;;10.60;4.00;;;;;;;3.96;82.73;100272.80;217007;1257;139419;-73
2024/01/23 15:38:52;;;;;;;16.10;5.40;;;;;;;3.96;82.63;100282.27;216929;1257;139283;-73
2024/01/23 15:43:58;;;;;;;9.00;3.80;;;;;;;3.96;82.69;100295.45;217914;1257;139745;-73
2024/01/23 15:49:02;;;;;;;8.30;4.40;;;;;;;3.94;82.65;100302.77;217780;1256;141930;-73
2024/01/23 15:54:08;;;;;;;10.40;3.60;;;;;;;3.92;82.62;100314.05;217295;1257;140832;-72
2024/01/23 15:59:14;;;;;;;10.50;5.00;;;;;;;3.93;82.76;100321.37;217098;1259;140455;-72
2024/01/23 16:04:24;;;;;;;7.80;5.20;;;;;;;3.93;82.69;100322.23;216999;1257;140045;-72
2024/01/23 16:09:29;;;;;;;7.60;4.50;;;;;;;3.95;82.88;100337.27;217135;1256;140346;-72
2024/01/23 16:14:37;;;;;;;6.50;3.90;;;;;;;3.94;82.61;100341.36;217034;1257;140245;-71
2024/01/23 16:19:41;;;;;;;13.10;4.50;;;;;;;3.94;82.69;100344.95;216977;1256;141021;-72
2024/01/23 16:24:47;;;;;;;7.80;3.00;;;;;;;3.93;82.67;100359.64;219068;1256;140721;-72
2024/01/23 16:29:52;;;;;;;18.30;5.40;;;;;;;3.95;82.93;100362.07;217523;1260;140574;-72
2024/01/23 16:34:55;;;;;;;10.60;4.60;;;;;;;3.97;82.65;100369.94;217126;1260;139394;-71
2024/01/23 16:39:59;;;;;;;11.00;6.00;;;;;;;3.96;82.81;100382.14;216839;1256;140278;-72
2024/01/23 16:45:05;;;;;;;11.20;5.00;;;;;;;3.97;82.86;100378.58;217294;1257;140542;-73
2024/01/23 16:50:10;;;;;;;14.60;4.80;;;;;;;3.99;82.79;100379.48;217205;1256;140123;-73
2024/01/23 16:55:14;;;;;;;10.30;4.40;;;;;;;3.97;82.89;100380.64;217278;1260;794906;-73
2024/01/23 17:00:18;;;;;;;16.60;4.80;;;;;;;3.93;83.02;100374.77;217677;1257;141309;-72
2024/01/23 17:05:22;;;;;;;8.80;4.60;;;;;;;3.90;83.44;100384.91;217606;1257;140902;-72
2024/01/23 17:10:27;;;;;;;9.00;5.60;;;;;;;3.89;83.55;100393.69;216999;1258;139876;-73
2024/01/23 17:15:31;;;;;;;10.60;4.90;;;;;;;3.83;83.54;100398.45;219930;1256;140095;-73
2024/01/23 17:20:35;;;;;;;9.60;4.20;;;;;;;3.80;83.80;100407.55;216958;1256;139511;-72
2024/01/23 17:25:40;;;;;;;15.30;4.60;;;;;;;3.81;83.74;100409.71;217042;1257;139502;-72
2024/01/23 17:30:44;;;;;;;6.70;4.80;;;;;;;3.82;83.77;100423.46;217144;1257;140333;-73
2024/01/23 17:35:49;;;;;;;12.20;4.90;;;;;;;3.84;83.78;100431.52;217061;1260;139434;-72
2024/01/23 17:40:54;;;;;;;15.00;5.50;;;;;;;3.82;83.95;100436.81;217054;1260;141802;-73
2024/01/23 17:45:58;;;;;;;11.50;4.80;;;;;;;3.82;84.02;100445.11;217097;1259;140480;-71
2024/01/23 17:51:04;;;;;;;11.90;4.10;;;;;;;3.81;84.19;100447.57;216820;1259;139873;-73
2024/01/23 17:56:08;;;;;;;9.00;3.30;;;;;;;3.79;84.22;100448.46;217059;1259;140338;-72
2024/01/23 18:01:13;;;;;;;15.10;7.10;;;;;;;3.77;84.44;100449.55;217117;1256;139575;-73
2024/01/23 18:06:17;;;;;;;17.80;8.00;;;;;;;3.78;84.55;100453.15;217093;1257;139478;-72
2024/01/23 18:11:22;;;;;;;15.60;5.20;;;;;;;3.78;84.58;100457.70;216987;1257;139817;-73
2024/01/23 18:16:27;;;;;;;19.10;6.00;;;;;;;3.74;84.64;100457.62;216868;1260;141113;-73
2024/01/23 18:21:32;;;;;;;15.60;5.40;;;;;;;3.70;84.69;100460.99;217143;1258;141550;-73
2024/01/23 18:26:36;;;;;;;25.60;7.50;;;;;;;3.69;84.80;100478.93;217986;1256;141041;-73
2024/01/23 18:31:41;;;;;;;12.20;5.90;;;;;;;3.68;84.59;100480.19;217068;1257;139565;-73
2024/01/23 18:36:46;;;;;;;8.60;5.60;;;;;;;3.70;84.62;100472.98;217023;1256;140030;-72
2024/01/23 18:41:50;;;;;;;18.10;5.70;;;;;;;3.70;84.59;100480.14;217116;1256;139638;-73
2024/01/23 18:46:55;;;;;;;13.40;5.60;;;;;;;3.74;84.61;100490.88;217101;1259;141142;-72
2024/01/23 18:52:00;;;;;;;11.70;4.60;;;;;;;3.76;84.53;100493.34;217147;1256;139952;-73
2024/01/23 18:57:04;;;;;;;16.50;7.10;;;;;;;3.75;84.47;100498.09;217041;1257;140820;-72
2024/01/23 19:02:09;;;;;;;8.70;3.80;;;;;;;3.75;84.37;100497.42;216680;1256;140018;-73
2024/01/23 19:07:15;;;;;;;10.90;4.90;;;;;;;3.75;84.21;100496.20;216810;1256;140414;-71
2024/01/23 19:12:21;;;;;;;13.90;5.30;;;;;;;3.74;84.04;100497.33;216758;1257;139473;-71
2024/01/23 19:17:27;;;;;;;8.70;5.80;;;;;;;3.74;83.90;100502.48;219774;1256;139762;-71
2024/01/23 19:22:32;;;;;;;12.20;6.30;;;;;;;3.75;83.88;100502.88;217093;1259;141830;-71
2024/01/23 19:27:36;;;;;;;13.90;4.00;;;;;;;3.73;83.67;100495.10;216866;1257;139579;-71
2024/01/23 19:32:41;;;;;;;11.60;5.90;;;;;;;3.73;83.71;100491.42;217597;1256;141810;-72
2024/01/23 19:37:46;;;;;;;12.20;4.90;;;;;;;3.73;83.54;100493.41;217032;1259;140899;-71
2024/01/23 19:42:51;;;;;;;10.60;5.40;;;;;;;3.70;83.36;100492.47;216975;1259;140069;-71
2024/01/23 19:47:56;;;;;;;21.90;7.20;;;;;;;3.69;83.45;100488.15;217815;1256;140279;-72
2024/01/23 19:53:02;;;;;;;7.90;4.70;;;;;;;3.69;83.59;100483.34;216945;1257;139442;-72
2024/01/23 19:58:07;;;;;;;14.60;6.00;;;;;;;3.67;83.47;100487.78;218079;1256;140402;-70
2024/01/23 20:03:13;;;;;;;14.90;6.10;;;;;;;3.66;83.43;100486.80;216964;1257;140295;-71
2024/01/23 20:08:17;;;;;;;12.40;5.70;;;;;;;3.68;83.69;100492.41;216979;1257;139470;-71
2024/01/23 20:13:23;;;;;;;12.40;6.90;;;;;;;3.67;83.52;100502.11;218403;1256;230786;-72
2024/01/23 20:18:27;;;;;;;10.60;4.90;;;;;;;3.67;83.47;100502.87;217167;1259;139904;-71
2024/01/23 20:23:33;;;;;;;16.10;5.90;;;;;;;3.64;83.32;100517.44;217561;1259;140220;-72
2024/01/23 20:28:39;;;;;;;11.90;5.30;;;;;;;3.58;83.35;100519.16;216783;1256;140961;-72
2024/01/23 20:33:44;;;;;;;20.00;6.70;;;;;;;3.49;83.30;100531.80;216840;1259;140926;-71
2024/01/23 20:38:48;;;;;;;10.90;5.10;;;;;;;3.41;83.28;100530.37;217077;1259;140576;-72
2024/01/23 20:43:53;;;;;;;20.20;6.60;;;;;;;3.35;83.36;100538.80;216965;1259;140905;-71
2024/01/23 20:48:57;;;;;;;9.70;5.10;;;;;;;3.28;83.43;100541.98;216979;1259;139942;-72
2024/01/23 20:54:02;;;;;;;13.70;6.30;;;;;;;3.25;83.58;100541.82;217033;1257;139777;-72
2024/01/23 20:59:08;;;;;;;11.70;4.70;;;;;;;3.23;83.71;100547.88;216651;1257;140535;-73
2024/01/23 21:04:12;;;;;;;16.10;6.40;;;;;;;3.22;83.71;100551.64;219175;1257;139795;-74
2024/01/23 21:09:17;;;;;;;13.00;5.50;;;;;;;3.21;83.71;100547.75;219866;1256;140193;-74
2024/01/23 21:14:22;;;;;;;18.50;7.60;;;;;;;3.21;83.54;100548.17;218089;1256;140103;-73
2024/01/23 21:19:28;;;;;;;15.00;9.00;;;;;;;3.18;83.54;100551.38;217113;1257;143396;-72
2024/01/23 21:24:32;;;;;;;15.00;6.30;;;;;;;3.17;83.61;100542.74;219168;1256;140707;-74
2024/01/23 21:29:37;;;;;;;20.40;6.00;;;;;;;3.18;83.70;100533.98;217358;1257;140114;-71
2024/01/23 21:34:41;;;;;;;13.30;6.00;;;;;;;3.19;83.82;100527.56;216943;1256;139719;-71
2024/01/23 21:39:46;;;;;;;13.30;5.20;;;;;;;3.20;83.83;100520.95;216985;1260;141442;-70
2024/01/23 21:44:51;;;;;;;15.20;4.30;;;;;;;3.20;83.81;100524.63;216934;1257;141276;-73
2024/01/23 21:49:54;;;;;;;15.90;5.10;;;;;;;3.18;83.83;100524.73;217204;1257;139997;-73
2024/01/23 21:54:59;;;;;;;12.80;4.30;;;;;;;3.15;83.71;100517.61;217701;1257;140016;-70
2024/01/23 22:00:05;;;;;;;13.90;4.40;;;;;;;3.13;83.78;100510.97;217372;1256;140981;-72
2024/01/23 22:05:10;;;;;;;9.20;5.80;;;;;;;3.15;83.86;100510.67;217457;1257;140031;-73
2024/01/23 22:10:17;;;;;;;14.40;4.30;;;;;;;3.16;83.84;100499.94;217305;1259;140130;-72
2024/01/23 22:15:23;;;;;;;14.00;5.50;;;;;;;3.17;83.76;100486.70;217450;1259;140245;-73
2024/01/23 22:20:28;;;;;;;10.00;3.70;;;;;;;3.16;83.67;100468.36;217308;1257;140673;-72
2024/01/23 22:25:33;;;;;;;18.10;4.70;;;;;;;3.11;83.45;100465.60;217584;1259;139742;-76
2024/01/23 22:30:37;;;;;;;11.30;4.40;;;;;;;3.05;83.41;100472.45;217388;1257;140545;-75
2024/01/23 22:35:41;;;;;;;21.90;5.60;;;;;;;2.98;83.48;100468.52;217234;1259;140744;-71
2024/01/23 22:40:47;;;;;;;16.20;6.00;;;;;;;2.93;83.09;100464.77;217297;1257;140466;-72
2024/01/23 22:45:52;;;;;;;11.70;3.80;;;;;;;2.86;83.42;100464.27;218083;1257;139921;-71
2024/01/23 22:50:56;;;;;;;14.80;4.90;;;;;;;2.81;83.29;100467.14;217353;1257;140533;-73
2024/01/23 22:56:03;;;;;;;12.80;5.70;;;;;;;2.74;83.32;100476.61;217336;1257;139671;-68
2024/01/23 23:01:07;;;;;;;24.30;7.20;;;;;;;2.68;83.31;100462.79;218136;1257;139737;-71
2024/01/23 23:06:12;;;;;;;11.50;4.90;;;;;;;2.63;83.52;100443.77;218098;1257;140396;-70
2024/01/23 23:11:16;;;;;;;12.80;7.00;;;;;;;2.61;83.30;100434.76;217260;1257;139788;-73
2024/01/23 23:16:20;;;;;;;16.90;5.20;;;;;;;2.56;83.20;100418.21;217478;1259;140406;-74